ラスベガス の空港の天気 - METARとTAF

マッカラン国際空港 ( KLAS / LAS ) - アメリカ ネバダ州ラスベガス
飛行場実況気象(Metar)
観測時間10/18 15:56 PDT (10/18 22:56 UTC)
風向・風速静穏 0m/s
視程10km以上
天気現象
全天の8割程度の雲 雲底高度 4570m
全天の8割程度の雲 雲底高度 6100m
全天の8割程度の雲 雲底高度 7620m
気温27.2℃
湿度7%
気圧1013hPa
METARKLAS 182256Z 00000KT 10SM BKN150 BKN200 BKN250 27/M12 A2997 RMK AO2 SLP130 T02721117
過去の天気等 Google飛行場航空写真 Wunderground天気予報

過去48時間のMETAR

飛行場予報(TAF)
発表時間: 10/18 16:20 PDT (10/18 23:20 UTC)
予報対象時間: 18日17時 PDT ~ 19日23時 PDT
風向・風速不定 3m/s
視程10km以上
全天の4割程度の雲 雲底高度 4,570m
全天の8割程度の雲 雲底高度 6,100m
18日20時 PDT から
風向・風速南西 4m/s
視程10km以上
全天の4割程度の雲 雲底高度 4,570m
19日9時 PDT から
風向・風速不定 3m/s
視程10km以上
少しの雲 雲底高度 4,570m
19日12時 PDT から
風向・風速東 3m/s
視程10km以上
少しの雲 雲底高度 4,570m
19日17時 PDT から
風向・風速南南西 7m/s
視程10km以上
全天の8割程度の雲 雲底高度 7,620m
KLAS 182320Z 1900/2006 VRB05KT P6SM SCT150 BKN200
FM190300 22007KT P6SM SCT150
FM191600 VRB05KT P6SM FEW150
FM191900 08006KT P6SM FEW150
FM200000 20013KT P6SM BKN250